sensor_id;sensor_type;location;lat;lon;timestamp;P1;durP1;ratioP1;P2;durP2;ratioP2
57848;SDS011;68645;44.762;21.516;2023-07-13T00:01:43;26.92;;;18.90;;
57848;SDS011;68645;44.762;21.516;2023-07-13T00:04:11;25.92;;;19.65;;
57848;SDS011;68645;44.762;21.516;2023-07-13T00:06:37;25.63;;;18.85;;
57848;SDS011;68645;44.762;21.516;2023-07-13T00:09:03;25.48;;;17.95;;
57848;SDS011;68645;44.762;21.516;2023-07-13T00:11:29;26.30;;;18.00;;
57848;SDS011;68645;44.762;21.516;2023-07-13T00:13:55;27.35;;;18.80;;
57848;SDS011;68645;44.762;21.516;2023-07-13T00:16:21;22.75;;;18.13;;
57848;SDS011;68645;44.762;21.516;2023-07-13T00:18:48;28.50;;;19.63;;
57848;SDS011;68645;44.762;21.516;2023-07-13T00:21:14;32.60;;;21.00;;
57848;SDS011;68645;44.762;21.516;2023-07-13T00:23:40;35.78;;;23.92;;
57848;SDS011;68645;44.762;21.516;2023-07-13T00:26:07;42.47;;;25.65;;
57848;SDS011;68645;44.762;21.516;2023-07-13T00:28:34;44.50;;;26.20;;
57848;SDS011;68645;44.762;21.516;2023-07-13T00:31:01;37.38;;;24.92;;
57848;SDS011;68645;44.762;21.516;2023-07-13T00:33:28;33.13;;;24.80;;
57848;SDS011;68645;44.762;21.516;2023-07-13T00:35:55;41.42;;;23.52;;
57848;SDS011;68645;44.762;21.516;2023-07-13T00:38:21;36.95;;;24.67;;
57848;SDS011;68645;44.762;21.516;2023-07-13T00:40:48;37.65;;;24.75;;
57848;SDS011;68645;44.762;21.516;2023-07-13T00:43:17;36.75;;;25.15;;
57848;SDS011;68645;44.762;21.516;2023-07-13T00:48:11;64.97;;;58.38;;
57848;SDS011;68645;44.762;21.516;2023-07-13T00:50:39;64.22;;;56.88;;
57848;SDS011;68645;44.762;21.516;2023-07-13T00:53:05;61.65;;;55.28;;
57848;SDS011;68645;44.762;21.516;2023-07-13T00:55:32;44.00;;;38.38;;
57848;SDS011;68645;44.762;21.516;2023-07-13T00:57:58;33.90;;;29.10;;
57848;SDS011;68645;44.762;21.516;2023-07-13T01:00:25;28.25;;;22.98;;
57848;SDS011;68645;44.762;21.516;2023-07-13T01:02:51;24.95;;;21.42;;
57848;SDS011;68645;44.762;21.516;2023-07-13T01:05:18;30.65;;;21.90;;
57848;SDS011;68645;44.762;21.516;2023-07-13T01:07:45;28.52;;;23.02;;
57848;SDS011;68645;44.762;21.516;2023-07-13T01:13:07;29.92;;;23.38;;
57848;SDS011;68645;44.762;21.516;2023-07-13T01:18:00;32.65;;;23.30;;
57848;SDS011;68645;44.762;21.516;2023-07-13T01:20:26;32.38;;;23.92;;
57848;SDS011;68645;44.762;21.516;2023-07-13T01:22:52;28.88;;;22.90;;
57848;SDS011;68645;44.762;21.516;2023-07-13T01:25:20;32.63;;;22.65;;
57848;SDS011;68645;44.762;21.516;2023-07-13T01:27:46;27.17;;;22.30;;
57848;SDS011;68645;44.762;21.516;2023-07-13T01:30:12;27.10;;;22.23;;
57848;SDS011;68645;44.762;21.516;2023-07-13T01:32:39;24.63;;;21.33;;
57848;SDS011;68645;44.762;21.516;2023-07-13T01:35:06;24.85;;;21.63;;
57848;SDS011;68645;44.762;21.516;2023-07-13T01:37:33;29.00;;;22.35;;
57848;SDS011;68645;44.762;21.516;2023-07-13T01:40:01;26.35;;;22.58;;
57848;SDS011;68645;44.762;21.516;2023-07-13T01:42:28;30.52;;;24.83;;
57848;SDS011;68645;44.762;21.516;2023-07-13T01:44:54;32.42;;;25.52;;
57848;SDS011;68645;44.762;21.516;2023-07-13T01:47:21;47.13;;;31.33;;
57848;SDS011;68645;44.762;21.516;2023-07-13T01:49:48;37.85;;;27.98;;
57848;SDS011;68645;44.762;21.516;2023-07-13T01:52:15;36.58;;;28.17;;
57848;SDS011;68645;44.762;21.516;2023-07-13T01:54:42;36.67;;;27.33;;
57848;SDS011;68645;44.762;21.516;2023-07-13T01:57:08;41.55;;;27.95;;
57848;SDS011;68645;44.762;21.516;2023-07-13T01:59:34;38.13;;;28.42;;
57848;SDS011;68645;44.762;21.516;2023-07-13T02:02:00;44.83;;;29.98;;
57848;SDS011;68645;44.762;21.516;2023-07-13T02:04:26;51.80;;;35.40;;
57848;SDS011;68645;44.762;21.516;2023-07-13T02:06:53;54.88;;;36.47;;
57848;SDS011;68645;44.762;21.516;2023-07-13T02:09:20;53.25;;;35.47;;
57848;SDS011;68645;44.762;21.516;2023-07-13T02:11:47;50.92;;;35.30;;
57848;SDS011;68645;44.762;21.516;2023-07-13T02:14:13;49.40;;;32.70;;
57848;SDS011;68645;44.762;21.516;2023-07-13T02:16:40;47.97;;;30.90;;
57848;SDS011;68645;44.762;21.516;2023-07-13T02:19:07;48.03;;;33.17;;
57848;SDS011;68645;44.762;21.516;2023-07-13T02:21:33;57.85;;;38.03;;
57848;SDS011;68645;44.762;21.516;2023-07-13T02:23:59;62.53;;;38.55;;
57848;SDS011;68645;44.762;21.516;2023-07-13T02:26:26;59.28;;;37.10;;
57848;SDS011;68645;44.762;21.516;2023-07-13T02:28:52;52.78;;;34.90;;
57848;SDS011;68645;44.762;21.516;2023-07-13T02:31:19;58.22;;;35.10;;
57848;SDS011;68645;44.762;21.516;2023-07-13T02:33:45;53.65;;;34.58;;
57848;SDS011;68645;44.762;21.516;2023-07-13T02:36:11;43.63;;;29.77;;
57848;SDS011;68645;44.762;21.516;2023-07-13T02:38:39;46.22;;;30.60;;
57848;SDS011;68645;44.762;21.516;2023-07-13T02:41:06;59.20;;;38.78;;
57848;SDS011;68645;44.762;21.516;2023-07-13T02:43:33;58.72;;;37.35;;
57848;SDS011;68645;44.762;21.516;2023-07-13T02:45:59;65.88;;;39.83;;
57848;SDS011;68645;44.762;21.516;2023-07-13T02:48:32;57.95;;;37.17;;
57848;SDS011;68645;44.762;21.516;2023-07-13T02:50:58;55.08;;;36.42;;
57848;SDS011;68645;44.762;21.516;2023-07-13T02:53:24;56.42;;;38.45;;
57848;SDS011;68645;44.762;21.516;2023-07-13T02:55:50;53.72;;;35.47;;
57848;SDS011;68645;44.762;21.516;2023-07-13T02:58:17;52.10;;;33.70;;
57848;SDS011;68645;44.762;21.516;2023-07-13T03:00:44;51.22;;;33.15;;
57848;SDS011;68645;44.762;21.516;2023-07-13T03:03:11;41.30;;;29.63;;
57848;SDS011;68645;44.762;21.516;2023-07-13T03:05:39;40.58;;;27.08;;
57848;SDS011;68645;44.762;21.516;2023-07-13T03:08:07;33.10;;;25.35;;
57848;SDS011;68645;44.762;21.516;2023-07-13T03:10:33;38.45;;;26.35;;
57848;SDS011;68645;44.762;21.516;2023-07-13T03:12:59;38.40;;;25.50;;
57848;SDS011;68645;44.762;21.516;2023-07-13T03:15:26;33.88;;;24.05;;
57848;SDS011;68645;44.762;21.516;2023-07-13T03:17:52;30.33;;;22.42;;
57848;SDS011;68645;44.762;21.516;2023-07-13T03:20:18;30.38;;;19.35;;
57848;SDS011;68645;44.762;21.516;2023-07-13T03:22:45;25.00;;;19.10;;
57848;SDS011;68645;44.762;21.516;2023-07-13T03:25:11;26.90;;;19.80;;
57848;SDS011;68645;44.762;21.516;2023-07-13T03:27:37;26.70;;;20.92;;
57848;SDS011;68645;44.762;21.516;2023-07-13T03:30:04;29.45;;;20.98;;
57848;SDS011;68645;44.762;21.516;2023-07-13T03:32:31;26.63;;;20.20;;
57848;SDS011;68645;44.762;21.516;2023-07-13T03:34:57;31.40;;;21.02;;
57848;SDS011;68645;44.762;21.516;2023-07-13T03:37:23;24.85;;;19.13;;
57848;SDS011;68645;44.762;21.516;2023-07-13T03:39:50;26.45;;;19.77;;
57848;SDS011;68645;44.762;21.516;2023-07-13T03:42:16;28.02;;;18.70;;
57848;SDS011;68645;44.762;21.516;2023-07-13T03:44:42;25.60;;;17.92;;
57848;SDS011;68645;44.762;21.516;2023-07-13T03:47:15;29.08;;;19.10;;
57848;SDS011;68645;44.762;21.516;2023-07-13T03:49:42;24.08;;;18.10;;
57848;SDS011;68645;44.762;21.516;2023-07-13T03:52:08;25.52;;;18.77;;
57848;SDS011;68645;44.762;21.516;2023-07-13T03:54:34;22.98;;;18.00;;
57848;SDS011;68645;44.762;21.516;2023-07-13T03:57:00;21.15;;;16.88;;
57848;SDS011;68645;44.762;21.516;2023-07-13T03:59:26;18.90;;;15.63;;
57848;SDS011;68645;44.762;21.516;2023-07-13T04:01:52;19.77;;;15.50;;
57848;SDS011;68645;44.762;21.516;2023-07-13T04:04:20;21.75;;;15.82;;
57848;SDS011;68645;44.762;21.516;2023-07-13T04:06:46;21.00;;;15.05;;
57848;SDS011;68645;44.762;21.516;2023-07-13T04:09:12;21.67;;;16.23;;
57848;SDS011;68645;44.762;21.516;2023-07-13T04:11:38;20.02;;;15.63;;
57848;SDS011;68645;44.762;21.516;2023-07-13T04:14:05;26.73;;;15.48;;
57848;SDS011;68645;44.762;21.516;2023-07-13T04:16:31;18.95;;;15.30;;
57848;SDS011;68645;44.762;21.516;2023-07-13T04:18:57;24.33;;;16.80;;
57848;SDS011;68645;44.762;21.516;2023-07-13T04:21:27;24.27;;;17.88;;
57848;SDS011;68645;44.762;21.516;2023-07-13T04:23:53;27.42;;;18.20;;
57848;SDS011;68645;44.762;21.516;2023-07-13T04:26:20;29.73;;;22.90;;
57848;SDS011;68645;44.762;21.516;2023-07-13T04:28:48;26.38;;;20.13;;
57848;SDS011;68645;44.762;21.516;2023-07-13T04:31:14;38.78;;;28.45;;
57848;SDS011;68645;44.762;21.516;2023-07-13T04:33:40;26.85;;;16.75;;
57848;SDS011;68645;44.762;21.516;2023-07-13T04:36:08;21.90;;;15.93;;
57848;SDS011;68645;44.762;21.516;2023-07-13T04:38:34;25.25;;;17.95;;
57848;SDS011;68645;44.762;21.516;2023-07-13T04:41:02;27.95;;;18.83;;
57848;SDS011;68645;44.762;21.516;2023-07-13T04:43:29;25.05;;;17.48;;
57848;SDS011;68645;44.762;21.516;2023-07-13T04:45:55;24.63;;;19.98;;
57848;SDS011;68645;44.762;21.516;2023-07-13T04:48:22;31.95;;;19.80;;
57848;SDS011;68645;44.762;21.516;2023-07-13T04:50:54;29.05;;;19.25;;
57848;SDS011;68645;44.762;21.516;2023-07-13T04:53:20;33.90;;;21.08;;
57848;SDS011;68645;44.762;21.516;2023-07-13T04:55:46;30.55;;;21.05;;
57848;SDS011;68645;44.762;21.516;2023-07-13T04:58:12;29.42;;;20.48;;
57848;SDS011;68645;44.762;21.516;2023-07-13T05:00:39;28.55;;;24.08;;
57848;SDS011;68645;44.762;21.516;2023-07-13T05:03:05;26.98;;;19.92;;
57848;SDS011;68645;44.762;21.516;2023-07-13T05:05:31;36.45;;;28.88;;
57848;SDS011;68645;44.762;21.516;2023-07-13T05:07:59;50.17;;;44.83;;
57848;SDS011;68645;44.762;21.516;2023-07-13T05:10:25;39.85;;;35.63;;
57848;SDS011;68645;44.762;21.516;2023-07-13T05:12:52;48.78;;;42.65;;
57848;SDS011;68645;44.762;21.516;2023-07-13T05:15:20;40.40;;;35.10;;
57848;SDS011;68645;44.762;21.516;2023-07-13T05:17:47;36.38;;;28.33;;
57848;SDS011;68645;44.762;21.516;2023-07-13T05:20:13;21.67;;;17.42;;
57848;SDS011;68645;44.762;21.516;2023-07-13T05:22:40;26.63;;;17.05;;
57848;SDS011;68645;44.762;21.516;2023-07-13T05:25:06;22.55;;;15.32;;
57848;SDS011;68645;44.762;21.516;2023-07-13T05:27:33;23.48;;;14.15;;
57848;SDS011;68645;44.762;21.516;2023-07-13T05:29:59;24.00;;;14.70;;
57848;SDS011;68645;44.762;21.516;2023-07-13T05:32:25;18.10;;;13.23;;
57848;SDS011;68645;44.762;21.516;2023-07-13T05:34:52;20.52;;;13.00;;
57848;SDS011;68645;44.762;21.516;2023-07-13T05:37:18;20.60;;;12.02;;
57848;SDS011;68645;44.762;21.516;2023-07-13T05:39:44;17.02;;;12.73;;
57848;SDS011;68645;44.762;21.516;2023-07-13T05:42:10;18.23;;;13.38;;
57848;SDS011;68645;44.762;21.516;2023-07-13T05:44:36;29.42;;;17.30;;
57848;SDS011;68645;44.762;21.516;2023-07-13T05:47:02;19.42;;;13.18;;
57848;SDS011;68645;44.762;21.516;2023-07-13T05:49:29;18.55;;;11.32;;
57848;SDS011;68645;44.762;21.516;2023-07-13T05:51:55;14.68;;;11.13;;
57848;SDS011;68645;44.762;21.516;2023-07-13T05:54:22;13.70;;;11.70;;
57848;SDS011;68645;44.762;21.516;2023-07-13T05:56:48;33.08;;;21.45;;
57848;SDS011;68645;44.762;21.516;2023-07-13T05:59:14;19.48;;;13.02;;
57848;SDS011;68645;44.762;21.516;2023-07-13T06:01:41;17.60;;;13.07;;
57848;SDS011;68645;44.762;21.516;2023-07-13T06:04:07;23.73;;;14.35;;
57848;SDS011;68645;44.762;21.516;2023-07-13T06:06:33;19.27;;;12.95;;
57848;SDS011;68645;44.762;21.516;2023-07-13T06:08:59;20.23;;;13.43;;
57848;SDS011;68645;44.762;21.516;2023-07-13T06:11:26;18.50;;;14.15;;
57848;SDS011;68645;44.762;21.516;2023-07-13T06:13:54;21.75;;;14.90;;
57848;SDS011;68645;44.762;21.516;2023-07-13T06:16:21;52.75;;;38.97;;
57848;SDS011;68645;44.762;21.516;2023-07-13T06:18:47;19.30;;;15.13;;
57848;SDS011;68645;44.762;21.516;2023-07-13T06:21:15;18.17;;;12.88;;
57848;SDS011;68645;44.762;21.516;2023-07-13T06:23:41;19.10;;;11.60;;
57848;SDS011;68645;44.762;21.516;2023-07-13T06:26:08;21.15;;;12.45;;
57848;SDS011;68645;44.762;21.516;2023-07-13T06:28:34;22.17;;;12.20;;
57848;SDS011;68645;44.762;21.516;2023-07-13T06:31:01;23.00;;;13.90;;
57848;SDS011;68645;44.762;21.516;2023-07-13T06:33:27;20.73;;;12.23;;
57848;SDS011;68645;44.762;21.516;2023-07-13T06:35:53;17.30;;;11.35;;
57848;SDS011;68645;44.762;21.516;2023-07-13T06:38:20;18.10;;;11.65;;
57848;SDS011;68645;44.762;21.516;2023-07-13T06:40:46;16.88;;;11.48;;
57848;SDS011;68645;44.762;21.516;2023-07-13T06:43:12;17.30;;;11.93;;
57848;SDS011;68645;44.762;21.516;2023-07-13T06:45:43;22.50;;;14.52;;
57848;SDS011;68645;44.762;21.516;2023-07-13T06:48:15;27.17;;;16.63;;
57848;SDS011;68645;44.762;21.516;2023-07-13T06:50:42;31.30;;;20.02;;
57848;SDS011;68645;44.762;21.516;2023-07-13T06:53:09;21.35;;;13.80;;
57848;SDS011;68645;44.762;21.516;2023-07-13T06:55:35;21.92;;;15.10;;
57848;SDS011;68645;44.762;21.516;2023-07-13T06:58:02;23.25;;;14.38;;
57848;SDS011;68645;44.762;21.516;2023-07-13T07:00:28;19.90;;;12.65;;
57848;SDS011;68645;44.762;21.516;2023-07-13T07:02:54;18.00;;;11.75;;
57848;SDS011;68645;44.762;21.516;2023-07-13T07:05:20;15.57;;;11.20;;
57848;SDS011;68645;44.762;21.516;2023-07-13T07:07:50;17.05;;;11.75;;
57848;SDS011;68645;44.762;21.516;2023-07-13T07:10:16;15.20;;;12.10;;
57848;SDS011;68645;44.762;21.516;2023-07-13T07:12:42;16.58;;;11.93;;
57848;SDS011;68645;44.762;21.516;2023-07-13T07:15:08;15.88;;;11.55;;
57848;SDS011;68645;44.762;21.516;2023-07-13T07:17:35;22.00;;;11.85;;
57848;SDS011;68645;44.762;21.516;2023-07-13T07:20:01;13.50;;;10.07;;
57848;SDS011;68645;44.762;21.516;2023-07-13T07:22:28;16.77;;;11.50;;
57848;SDS011;68645;44.762;21.516;2023-07-13T07:24:55;17.20;;;11.45;;
57848;SDS011;68645;44.762;21.516;2023-07-13T07:27:21;17.33;;;13.52;;
57848;SDS011;68645;44.762;21.516;2023-07-13T07:29:48;15.80;;;11.35;;
57848;SDS011;68645;44.762;21.516;2023-07-13T07:32:14;12.32;;;9.25;;
57848;SDS011;68645;44.762;21.516;2023-07-13T07:34:40;14.38;;;10.15;;
57848;SDS011;68645;44.762;21.516;2023-07-13T07:37:06;13.48;;;9.48;;
57848;SDS011;68645;44.762;21.516;2023-07-13T07:39:32;13.85;;;8.93;;
57848;SDS011;68645;44.762;21.516;2023-07-13T07:41:58;12.88;;;8.27;;
57848;SDS011;68645;44.762;21.516;2023-07-13T07:44:24;11.23;;;7.55;;
57848;SDS011;68645;44.762;21.516;2023-07-13T07:46:52;15.23;;;8.35;;
57848;SDS011;68645;44.762;21.516;2023-07-13T07:49:18;12.15;;;7.72;;
57848;SDS011;68645;44.762;21.516;2023-07-13T07:51:44;12.20;;;8.30;;
57848;SDS011;68645;44.762;21.516;2023-07-13T07:54:10;11.10;;;8.13;;
57848;SDS011;68645;44.762;21.516;2023-07-13T07:56:36;10.52;;;7.18;;
57848;SDS011;68645;44.762;21.516;2023-07-13T07:59:02;9.48;;;7.93;;
57848;SDS011;68645;44.762;21.516;2023-07-13T08:01:28;13.10;;;7.35;;
57848;SDS011;68645;44.762;21.516;2023-07-13T08:03:55;11.95;;;8.00;;
57848;SDS011;68645;44.762;21.516;2023-07-13T08:06:21;10.68;;;7.75;;
57848;SDS011;68645;44.762;21.516;2023-07-13T08:08:48;12.60;;;7.95;;
57848;SDS011;68645;44.762;21.516;2023-07-13T08:11:14;13.23;;;8.05;;
57848;SDS011;68645;44.762;21.516;2023-07-13T08:13:40;11.98;;;8.25;;
57848;SDS011;68645;44.762;21.516;2023-07-13T08:16:06;11.52;;;7.07;;
57848;SDS011;68645;44.762;21.516;2023-07-13T08:18:32;12.13;;;7.68;;
57848;SDS011;68645;44.762;21.516;2023-07-13T08:21:02;9.15;;;7.03;;
57848;SDS011;68645;44.762;21.516;2023-07-13T08:23:28;9.20;;;7.60;;
57848;SDS011;68645;44.762;21.516;2023-07-13T08:25:54;9.52;;;7.10;;
57848;SDS011;68645;44.762;21.516;2023-07-13T08:28:22;10.15;;;7.40;;
57848;SDS011;68645;44.762;21.516;2023-07-13T08:30:48;9.68;;;7.68;;
57848;SDS011;68645;44.762;21.516;2023-07-13T08:33:15;10.02;;;7.53;;
57848;SDS011;68645;44.762;21.516;2023-07-13T08:35:41;13.10;;;8.57;;
57848;SDS011;68645;44.762;21.516;2023-07-13T08:38:07;10.80;;;7.68;;
57848;SDS011;68645;44.762;21.516;2023-07-13T08:40:34;12.20;;;7.70;;
57848;SDS011;68645;44.762;21.516;2023-07-13T08:43:00;14.73;;;7.90;;
57848;SDS011;68645;44.762;21.516;2023-07-13T08:47:54;11.73;;;7.32;;
57848;SDS011;68645;44.762;21.516;2023-07-13T08:50:22;9.55;;;7.07;;
57848;SDS011;68645;44.762;21.516;2023-07-13T08:52:50;11.97;;;7.67;;
57848;SDS011;68645;44.762;21.516;2023-07-13T08:55:18;9.98;;;7.88;;
57848;SDS011;68645;44.762;21.516;2023-07-13T08:57:46;13.88;;;7.90;;
57848;SDS011;68645;44.762;21.516;2023-07-13T09:00:14;11.35;;;7.80;;
57848;SDS011;68645;44.762;21.516;2023-07-13T09:02:57;10.77;;;8.00;;
57848;SDS011;68645;44.762;21.516;2023-07-13T09:05:28;12.70;;;7.43;;
57848;SDS011;68645;44.762;21.516;2023-07-13T09:08:19;10.57;;;7.57;;
57848;SDS011;68645;44.762;21.516;2023-07-13T09:10:52;12.20;;;7.60;;
57848;SDS011;68645;44.762;21.516;2023-07-13T09:13:27;12.25;;;7.53;;
57848;SDS011;68645;44.762;21.516;2023-07-13T09:15:54;10.32;;;7.60;;
57848;SDS011;68645;44.762;21.516;2023-07-13T09:18:28;11.20;;;7.47;;
57848;SDS011;68645;44.762;21.516;2023-07-13T09:21:00;11.55;;;7.43;;
57848;SDS011;68645;44.762;21.516;2023-07-13T09:23:28;11.57;;;7.20;;
57848;SDS011;68645;44.762;21.516;2023-07-13T09:26:06;10.80;;;7.30;;
57848;SDS011;68645;44.762;21.516;2023-07-13T09:28:40;10.70;;;7.25;;
57848;SDS011;68645;44.762;21.516;2023-07-13T09:31:15;15.40;;;7.70;;
57848;SDS011;68645;44.762;21.516;2023-07-13T09:33:42;15.43;;;7.75;;
57848;SDS011;68645;44.762;21.516;2023-07-13T09:38:49;13.88;;;7.60;;
57848;SDS011;68645;44.762;21.516;2023-07-13T09:44:01;12.75;;;8.45;;
57848;SDS011;68645;44.762;21.516;2023-07-13T09:46:27;14.95;;;8.57;;
57848;SDS011;68645;44.762;21.516;2023-07-13T09:48:53;10.35;;;7.93;;
57848;SDS011;68645;44.762;21.516;2023-07-13T09:51:21;10.57;;;7.20;;
57848;SDS011;68645;44.762;21.516;2023-07-13T09:53:48;14.73;;;7.68;;
57848;SDS011;68645;44.762;21.516;2023-07-13T09:56:22;11.18;;;7.15;;
57848;SDS011;68645;44.762;21.516;2023-07-13T09:58:48;10.90;;;7.05;;
57848;SDS011;68645;44.762;21.516;2023-07-13T10:01:15;12.68;;;7.10;;
57848;SDS011;68645;44.762;21.516;2023-07-13T10:03:51;10.90;;;7.45;;
57848;SDS011;68645;44.762;21.516;2023-07-13T10:06:19;10.57;;;7.10;;
57848;SDS011;68645;44.762;21.516;2023-07-13T10:08:49;15.70;;;6.80;;
57848;SDS011;68645;44.762;21.516;2023-07-13T10:11:20;11.30;;;7.00;;
57848;SDS011;68645;44.762;21.516;2023-07-13T10:13:53;11.57;;;6.72;;
57848;SDS011;68645;44.762;21.516;2023-07-13T10:16:22;11.27;;;6.80;;
57848;SDS011;68645;44.762;21.516;2023-07-13T10:18:49;9.68;;;6.82;;
57848;SDS011;68645;44.762;21.516;2023-07-13T10:21:17;11.10;;;6.28;;
57848;SDS011;68645;44.762;21.516;2023-07-13T10:23:44;8.88;;;6.72;;
57848;SDS011;68645;44.762;21.516;2023-07-13T10:26:15;10.45;;;6.20;;
57848;SDS011;68645;44.762;21.516;2023-07-13T10:28:42;12.10;;;6.32;;
57848;SDS011;68645;44.762;21.516;2023-07-13T10:31:12;7.40;;;6.22;;
57848;SDS011;68645;44.762;21.516;2023-07-13T10:33:39;12.27;;;6.60;;
57848;SDS011;68645;44.762;21.516;2023-07-13T10:36:16;13.15;;;6.43;;
57848;SDS011;68645;44.762;21.516;2023-07-13T10:38:43;11.18;;;5.82;;
57848;SDS011;68645;44.762;21.516;2023-07-13T10:41:15;11.38;;;5.95;;
57848;SDS011;68645;44.762;21.516;2023-07-13T10:43:44;9.02;;;6.32;;
57848;SDS011;68645;44.762;21.516;2023-07-13T10:46:12;10.80;;;6.82;;
57848;SDS011;68645;44.762;21.516;2023-07-13T10:48:40;10.25;;;6.68;;
57848;SDS011;68645;44.762;21.516;2023-07-13T10:51:06;11.10;;;6.60;;
57848;SDS011;68645;44.762;21.516;2023-07-13T10:53:34;14.32;;;6.65;;
57848;SDS011;68645;44.762;21.516;2023-07-13T10:56:05;9.50;;;6.75;;
57848;SDS011;68645;44.762;21.516;2023-07-13T10:58:39;10.65;;;6.20;;
57848;SDS011;68645;44.762;21.516;2023-07-13T11:03:33;9.18;;;6.28;;
57848;SDS011;68645;44.762;21.516;2023-07-13T11:06:42;10.63;;;6.65;;
57848;SDS011;68645;44.762;21.516;2023-07-13T11:08:53;12.02;;;6.47;;
57848;SDS011;68645;44.762;21.516;2023-07-13T11:13:58;9.50;;;6.30;;
57848;SDS011;68645;44.762;21.516;2023-07-13T11:16:38;10.18;;;6.82;;
57848;SDS011;68645;44.762;21.516;2023-07-13T11:19:23;13.02;;;6.50;;
57848;SDS011;68645;44.762;21.516;2023-07-13T11:22:10;10.55;;;6.47;;
57848;SDS011;68645;44.762;21.516;2023-07-13T11:24:50;12.25;;;6.50;;
57848;SDS011;68645;44.762;21.516;2023-07-13T11:29:43;8.90;;;6.05;;
57848;SDS011;68645;44.762;21.516;2023-07-13T11:32:25;10.70;;;6.28;;
57848;SDS011;68645;44.762;21.516;2023-07-13T11:34:55;8.68;;;6.18;;
57848;SDS011;68645;44.762;21.516;2023-07-13T11:37:22;8.40;;;5.43;;
57848;SDS011;68645;44.762;21.516;2023-07-13T11:39:49;10.45;;;5.88;;
57848;SDS011;68645;44.762;21.516;2023-07-13T11:42:18;10.93;;;5.82;;
57848;SDS011;68645;44.762;21.516;2023-07-13T11:44:48;12.10;;;6.05;;
57848;SDS011;68645;44.762;21.516;2023-07-13T11:47:19;10.43;;;5.72;;
57848;SDS011;68645;44.762;21.516;2023-07-13T11:49:50;10.93;;;6.53;;
57848;SDS011;68645;44.762;21.516;2023-07-13T11:52:18;7.65;;;5.47;;
57848;SDS011;68645;44.762;21.516;2023-07-13T11:54:49;13.25;;;5.45;;
57848;SDS011;68645;44.762;21.516;2023-07-13T11:57:44;9.65;;;5.72;;
57848;SDS011;68645;44.762;21.516;2023-07-13T12:02:43;11.73;;;5.97;;
57848;SDS011;68645;44.762;21.516;2023-07-13T12:05:11;8.05;;;5.53;;
57848;SDS011;68645;44.762;21.516;2023-07-13T12:07:38;11.13;;;5.93;;
57848;SDS011;68645;44.762;21.516;2023-07-13T12:12:37;8.88;;;5.40;;
57848;SDS011;68645;44.762;21.516;2023-07-13T12:15:06;9.65;;;5.82;;
57848;SDS011;68645;44.762;21.516;2023-07-13T12:19:59;10.02;;;5.35;;
57848;SDS011;68645;44.762;21.516;2023-07-13T12:22:25;8.88;;;5.05;;
57848;SDS011;68645;44.762;21.516;2023-07-13T12:24:51;6.95;;;5.20;;
57848;SDS011;68645;44.762;21.516;2023-07-13T12:27:20;8.55;;;5.43;;
57848;SDS011;68645;44.762;21.516;2023-07-13T12:29:51;9.80;;;5.93;;
57848;SDS011;68645;44.762;21.516;2023-07-13T12:32:19;10.05;;;5.32;;
57848;SDS011;68645;44.762;21.516;2023-07-13T12:34:55;9.00;;;5.75;;
57848;SDS011;68645;44.762;21.516;2023-07-13T12:37:21;8.23;;;5.90;;
57848;SDS011;68645;44.762;21.516;2023-07-13T12:39:48;7.93;;;5.75;;
57848;SDS011;68645;44.762;21.516;2023-07-13T12:42:23;8.30;;;5.63;;
57848;SDS011;68645;44.762;21.516;2023-07-13T12:44:56;8.95;;;5.25;;
57848;SDS011;68645;44.762;21.516;2023-07-13T12:47:23;9.57;;;5.88;;
57848;SDS011;68645;44.762;21.516;2023-07-13T12:49:50;10.50;;;5.80;;
57848;SDS011;68645;44.762;21.516;2023-07-13T12:52:17;14.05;;;5.93;;
57848;SDS011;68645;44.762;21.516;2023-07-13T12:54:52;10.20;;;5.97;;
57848;SDS011;68645;44.762;21.516;2023-07-13T12:57:22;12.88;;;6.13;;
57848;SDS011;68645;44.762;21.516;2023-07-13T12:59:51;8.35;;;5.32;;
57848;SDS011;68645;44.762;21.516;2023-07-13T13:02:23;12.32;;;5.30;;
57848;SDS011;68645;44.762;21.516;2023-07-13T13:04:52;11.30;;;5.43;;
57848;SDS011;68645;44.762;21.516;2023-07-13T13:07:20;8.95;;;5.18;;
57848;SDS011;68645;44.762;21.516;2023-07-13T13:09:46;8.05;;;4.93;;
57848;SDS011;68645;44.762;21.516;2023-07-13T13:12:12;11.65;;;5.32;;
57848;SDS011;68645;44.762;21.516;2023-07-13T13:14:40;8.05;;;5.28;;
57848;SDS011;68645;44.762;21.516;2023-07-13T13:17:28;10.50;;;5.20;;
57848;SDS011;68645;44.762;21.516;2023-07-13T13:19:52;11.70;;;5.65;;
57848;SDS011;68645;44.762;21.516;2023-07-13T13:22:19;10.15;;;5.30;;
57848;SDS011;68645;44.762;21.516;2023-07-13T13:24:45;8.80;;;5.55;;
57848;SDS011;68645;44.762;21.516;2023-07-13T13:27:21;9.65;;;6.00;;
57848;SDS011;68645;44.762;21.516;2023-07-13T13:29:49;8.93;;;5.95;;
57848;SDS011;68645;44.762;21.516;2023-07-13T13:32:19;11.30;;;5.90;;
57848;SDS011;68645;44.762;21.516;2023-07-13T13:34:46;10.32;;;6.90;;
57848;SDS011;68645;44.762;21.516;2023-07-13T13:37:21;15.27;;;6.22;;
57848;SDS011;68645;44.762;21.516;2023-07-13T13:39:48;15.15;;;6.28;;
57848;SDS011;68645;44.762;21.516;2023-07-13T13:42:15;14.07;;;5.63;;
57848;SDS011;68645;44.762;21.516;2023-07-13T13:44:41;10.27;;;5.47;;
57848;SDS011;68645;44.762;21.516;2023-07-13T13:47:17;17.27;;;6.20;;
57848;SDS011;68645;44.762;21.516;2023-07-13T13:49:46;12.30;;;6.07;;
57848;SDS011;68645;44.762;21.516;2023-07-13T13:52:12;9.68;;;5.43;;
57848;SDS011;68645;44.762;21.516;2023-07-13T13:54:38;10.80;;;5.63;;
57848;SDS011;68645;44.762;21.516;2023-07-13T13:57:04;13.43;;;5.68;;
57848;SDS011;68645;44.762;21.516;2023-07-13T13:59:32;10.77;;;5.63;;
57848;SDS011;68645;44.762;21.516;2023-07-13T14:02:07;9.18;;;5.55;;
57848;SDS011;68645;44.762;21.516;2023-07-13T14:04:41;10.50;;;5.95;;
57848;SDS011;68645;44.762;21.516;2023-07-13T14:07:07;9.70;;;5.65;;
57848;SDS011;68645;44.762;21.516;2023-07-13T14:09:33;9.75;;;5.22;;
57848;SDS011;68645;44.762;21.516;2023-07-13T14:11:59;11.15;;;5.47;;
57848;SDS011;68645;44.762;21.516;2023-07-13T14:14:33;12.30;;;5.05;;
57848;SDS011;68645;44.762;21.516;2023-07-13T14:16:59;13.07;;;5.80;;
57848;SDS011;68645;44.762;21.516;2023-07-13T14:19:25;8.27;;;5.57;;
57848;SDS011;68645;44.762;21.516;2023-07-13T14:21:52;9.05;;;4.80;;
57848;SDS011;68645;44.762;21.516;2023-07-13T14:24:19;8.45;;;5.20;;
57848;SDS011;68645;44.762;21.516;2023-07-13T14:26:46;6.18;;;4.65;;
57848;SDS011;68645;44.762;21.516;2023-07-13T14:29:14;18.15;;;5.35;;
57848;SDS011;68645;44.762;21.516;2023-07-13T14:31:41;10.63;;;5.80;;
57848;SDS011;68645;44.762;21.516;2023-07-13T14:34:10;13.95;;;5.45;;
57848;SDS011;68645;44.762;21.516;2023-07-13T14:36:38;9.93;;;5.32;;
57848;SDS011;68645;44.762;21.516;2023-07-13T14:41:32;9.07;;;5.00;;
57848;SDS011;68645;44.762;21.516;2023-07-13T14:43:58;11.02;;;5.32;;
57848;SDS011;68645;44.762;21.516;2023-07-13T14:46:29;9.25;;;5.00;;
57848;SDS011;68645;44.762;21.516;2023-07-13T14:48:59;10.90;;;5.22;;
57848;SDS011;68645;44.762;21.516;2023-07-13T14:51:26;11.85;;;5.57;;
57848;SDS011;68645;44.762;21.516;2023-07-13T14:53:52;8.93;;;4.93;;